createdAt,value
2017-02-03T00:00:36.342Z,1028.11
2017-02-03T00:01:36.326Z,1028.12
2017-02-03T00:02:36.312Z,1028.14
2017-02-03T00:03:36.298Z,1028.1
2017-02-03T00:04:36.285Z,1028.09
2017-02-03T00:05:36.269Z,1027.99
2017-02-03T00:06:36.255Z,1027.99
2017-02-03T00:07:36.241Z,1027.97
2017-02-03T00:08:36.226Z,1027.99
2017-02-03T00:09:36.211Z,1027.97
2017-02-03T00:10:36.198Z,1028
2017-02-03T00:11:36.183Z,1027.98
2017-02-03T00:12:36.168Z,1027.94
2017-02-03T00:13:36.154Z,1027.9
2017-02-03T00:14:36.141Z,1027.88
2017-02-03T00:15:36.125Z,1027.83
2017-02-03T00:16:36.109Z,1027.82
2017-02-03T00:17:36.096Z,1027.79
2017-02-03T00:18:36.082Z,1027.81
2017-02-03T00:19:36.066Z,1027.85
2017-02-03T00:20:36.053Z,1027.92
2017-02-03T00:21:36.038Z,1027.93
2017-02-03T00:22:36.024Z,1027.98
2017-02-03T00:23:36.007Z,1028.04
2017-02-03T00:24:35.995Z,1028.06
2017-02-03T00:25:35.980Z,1028.01
2017-02-03T00:26:35.966Z,1027.96
2017-02-03T00:27:35.951Z,1027.94
2017-02-03T00:28:35.936Z,1027.89
2017-02-03T00:29:35.922Z,1027.86
2017-02-03T00:30:35.907Z,1027.88
2017-02-03T00:31:35.892Z,1027.78
2017-02-03T00:32:35.878Z,1027.74
2017-02-03T00:33:35.865Z,1027.73
2017-02-03T00:34:35.848Z,1027.76
2017-02-03T00:35:35.837Z,1027.78
2017-02-03T00:36:35.820Z,1027.86
2017-02-03T00:37:35.807Z,1027.88
2017-02-03T00:38:35.790Z,1027.93
2017-02-03T00:39:35.777Z,1027.95
2017-02-03T00:40:35.762Z,1027.95
2017-02-03T00:41:35.747Z,1027.95
2017-02-03T00:42:35.733Z,1027.88
2017-02-03T00:43:35.719Z,1027.86
2017-02-03T00:44:35.704Z,1027.82
2017-02-03T00:45:35.688Z,1027.79
2017-02-03T00:46:35.675Z,1027.75
2017-02-03T00:47:35.660Z,1027.76
2017-02-03T00:48:35.650Z,1027.71
2017-02-03T00:49:35.632Z,1027.68
2017-02-03T00:50:35.617Z,1027.71
2017-02-03T00:51:35.603Z,1027.64
2017-02-03T00:52:35.588Z,1027.62
2017-02-03T00:53:35.574Z,1027.65
2017-02-03T00:54:35.560Z,1027.64
2017-02-03T00:55:35.547Z,1027.64
2017-02-03T00:56:35.534Z,1027.67
2017-02-03T00:57:35.515Z,1027.63
2017-02-03T00:58:35.506Z,1027.65
2017-02-03T00:59:35.485Z,1027.68
2017-02-03T01:00:35.472Z,1027.75
2017-02-03T01:01:35.457Z,1027.71
2017-02-03T01:02:35.443Z,1027.72
2017-02-03T01:03:35.428Z,1027.67
2017-02-03T01:04:35.414Z,1027.63
2017-02-03T01:05:35.400Z,1027.59
2017-02-03T01:06:35.386Z,1027.55
2017-02-03T01:07:35.371Z,1027.52
2017-02-03T01:08:35.358Z,1027.52
2017-02-03T01:09:35.342Z,1027.53
2017-02-03T01:10:35.332Z,1027.55
2017-02-03T01:11:35.317Z,1027.54
2017-02-03T01:12:35.299Z,1027.57
2017-02-03T01:13:35.285Z,1027.62
2017-02-03T01:14:35.269Z,1027.6
2017-02-03T01:15:35.256Z,1027.63
2017-02-03T01:16:35.241Z,1027.67
2017-02-03T01:17:35.226Z,1027.66
2017-02-03T01:18:35.211Z,1027.67
2017-02-03T01:19:35.197Z,1027.71
2017-02-03T01:20:35.182Z,1027.73
2017-02-03T01:21:35.168Z,1027.71
2017-02-03T01:22:35.155Z,1027.69
2017-02-03T01:23:35.139Z,1027.7
2017-02-03T01:24:35.125Z,1027.65
2017-02-03T01:25:35.109Z,1027.62
2017-02-03T01:26:35.095Z,1027.59
2017-02-03T01:27:35.082Z,1027.54
2017-02-03T01:28:35.068Z,1027.44
2017-02-03T01:29:35.052Z,1027.42
2017-02-03T01:30:35.037Z,1027.39
2017-02-03T01:31:35.023Z,1027.39
2017-02-03T01:32:35.008Z,1027.4
2017-02-03T01:33:34.993Z,1027.4
2017-02-03T01:34:34.982Z,1027.37
2017-02-03T01:35:34.965Z,1027.34
2017-02-03T01:36:34.950Z,1027.32
2017-02-03T01:37:34.936Z,1027.31
2017-02-03T01:38:34.922Z,1027.32
2017-02-03T01:39:34.908Z,1027.33
2017-02-03T01:40:34.893Z,1027.35
2017-02-03T01:41:34.878Z,1027.39
2017-02-03T01:42:34.864Z,1027.28
2017-02-03T01:43:34.850Z,1027.24
2017-02-03T01:44:34.835Z,1027.27
2017-02-03T01:45:34.822Z,1027.24
2017-02-03T01:46:34.812Z,1027.3
2017-02-03T01:47:34.793Z,1027.37
2017-02-03T01:48:34.777Z,1027.38
2017-02-03T01:49:34.764Z,1027.36
2017-02-03T01:50:34.749Z,1027.32
2017-02-03T01:51:34.735Z,1027.29
2017-02-03T01:52:34.721Z,1027.27
2017-02-03T01:53:34.707Z,1027.22
2017-02-03T01:54:34.694Z,1027.23
2017-02-03T01:55:34.678Z,1027.19
2017-02-03T01:56:34.664Z,1027.22
2017-02-03T01:57:34.649Z,1027.21
2017-02-03T01:58:34.635Z,1027.2
2017-02-03T01:59:34.621Z,1027.15
2017-02-03T02:00:34.606Z,1027.14
2017-02-03T02:01:34.593Z,1027.17
2017-02-03T02:02:34.577Z,1027.16
2017-02-03T02:03:34.562Z,1027.11
2017-02-03T02:04:34.549Z,1027.17
2017-02-03T02:05:34.534Z,1027.17
2017-02-03T02:06:34.520Z,1027.13
2017-02-03T02:07:34.505Z,1027.18
2017-02-03T02:08:34.492Z,1027.13
2017-02-03T02:09:34.476Z,1027.21
2017-02-03T02:10:34.461Z,1027.15
2017-02-03T02:11:34.448Z,1027.18
2017-02-03T02:12:34.434Z,1027.11
2017-02-03T02:13:34.419Z,1027.09
2017-02-03T02:14:34.404Z,1027.1
2017-02-03T02:15:34.390Z,1027.04
2017-02-03T02:16:34.375Z,1027.06
2017-02-03T02:17:34.361Z,1027.09
2017-02-03T02:18:34.347Z,1027.08
2017-02-03T02:19:34.332Z,1027.07
2017-02-03T02:20:34.317Z,1027.07
2017-02-03T02:21:34.303Z,1027.08
2017-02-03T02:22:34.288Z,1027.13
2017-02-03T02:23:34.274Z,1027.14
2017-02-03T02:24:34.260Z,1027.2
2017-02-03T02:25:34.245Z,1027.23
2017-02-03T02:26:34.234Z,1027.29
2017-02-03T02:27:34.216Z,1027.24
2017-02-03T02:28:34.205Z,1027.26
2017-02-03T02:29:34.194Z,1027.25
2017-02-03T02:30:34.172Z,1027.29
2017-02-03T02:31:34.158Z,1027.28
2017-02-03T02:32:34.143Z,1027.24
2017-02-03T02:33:34.128Z,1027.2
2017-02-03T02:34:34.113Z,1027.16
2017-02-03T02:35:34.099Z,1027.18
2017-02-03T02:36:34.084Z,1027.13
2017-02-03T02:37:34.069Z,1027.11
2017-02-03T02:38:34.055Z,1027.13
2017-02-03T02:39:34.038Z,1027.1
2017-02-03T02:40:34.024Z,1027.09
2017-02-03T02:41:34.009Z,1027.11
2017-02-03T02:42:33.994Z,1027.1
2017-02-03T02:43:34.013Z,1027.05
2017-02-03T02:44:33.964Z,1027.09
2017-02-03T02:45:33.949Z,1027.07
2017-02-03T02:46:33.934Z,1027.1
2017-02-03T02:47:33.920Z,1027.14
2017-02-03T02:48:33.905Z,1027.16
2017-02-03T02:49:33.889Z,1027.18
2017-02-03T02:50:33.875Z,1027.2
2017-02-03T02:51:33.862Z,1027.25
2017-02-03T02:52:33.845Z,1027.25
2017-02-03T02:53:33.829Z,1027.28
2017-02-03T02:54:33.813Z,1027.3
2017-02-03T02:55:33.799Z,1027.31
2017-02-03T02:56:33.783Z,1027.35
2017-02-03T02:57:33.768Z,1027.3
2017-02-03T02:58:33.754Z,1027.26
2017-02-03T02:59:33.739Z,1027.27
2017-02-03T03:00:33.722Z,1027.29
2017-02-03T03:01:33.708Z,1027.29
2017-02-03T03:02:33.694Z,1027.21
2017-02-03T03:03:33.679Z,1027.13
2017-02-03T03:04:33.663Z,1027.19
2017-02-03T03:05:33.647Z,1027.15
2017-02-03T03:06:33.633Z,1027.16
2017-02-03T03:07:33.618Z,1027.16
2017-02-03T03:08:33.602Z,1027.17
2017-02-03T03:09:33.588Z,1027.09
2017-02-03T03:10:33.573Z,1027.04
2017-02-03T03:11:33.557Z,1027
2017-02-03T03:12:33.542Z,1026.99
2017-02-03T03:13:33.528Z,1026.91
2017-02-03T03:14:33.510Z,1026.87
2017-02-03T03:15:33.499Z,1026.85
2017-02-03T03:16:33.484Z,1026.89
2017-02-03T03:17:33.468Z,1026.9
2017-02-03T03:18:33.454Z,1026.94
2017-02-03T03:19:33.439Z,1026.93
2017-02-03T03:20:33.424Z,1026.94
2017-02-03T03:21:33.409Z,1026.95
2017-02-03T03:22:33.396Z,1026.98
2017-02-03T03:23:33.379Z,1026.97
2017-02-03T03:24:33.365Z,1026.92
2017-02-03T03:25:33.350Z,1026.83
2017-02-03T03:26:33.336Z,1026.79
2017-02-03T03:27:33.321Z,1026.81
2017-02-03T03:28:33.306Z,1026.87
2017-02-03T03:29:33.290Z,1026.83
2017-02-03T03:30:33.277Z,1026.88
2017-02-03T03:31:33.262Z,1026.9
2017-02-03T03:32:33.247Z,1026.84
2017-02-03T03:33:33.230Z,1026.88
2017-02-03T03:34:33.218Z,1026.83
2017-02-03T03:35:33.204Z,1026.83
2017-02-03T03:36:33.188Z,1026.75
2017-02-03T03:37:33.172Z,1026.69
2017-02-03T03:38:33.159Z,1026.67
2017-02-03T03:39:33.146Z,1026.67
2017-02-03T03:40:33.128Z,1026.71
2017-02-03T03:41:33.114Z,1026.66
2017-02-03T03:42:33.098Z,1026.69
2017-02-03T03:43:33.083Z,1026.65
2017-02-03T03:44:33.068Z,1026.66
2017-02-03T03:45:33.055Z,1026.63
2017-02-03T03:46:33.039Z,1026.62
2017-02-03T03:47:33.026Z,1026.66
2017-02-03T03:48:33.011Z,1026.68
2017-02-03T03:49:32.994Z,1026.62
2017-02-03T03:50:32.985Z,1026.6
2017-02-03T03:51:32.963Z,1026.63
2017-02-03T03:52:32.949Z,1026.56
2017-02-03T03:53:32.936Z,1026.54
2017-02-03T03:54:32.923Z,1026.45
2017-02-03T03:55:32.905Z,1026.35
2017-02-03T03:56:32.891Z,1026.33
2017-02-03T03:57:32.877Z,1026.37
2017-02-03T03:58:32.863Z,1026.42
2017-02-03T03:59:32.849Z,1026.46
2017-02-03T04:00:32.836Z,1026.48
2017-02-03T04:01:32.820Z,1026.49
2017-02-03T04:02:32.808Z,1026.44
2017-02-03T04:03:32.789Z,1026.47
2017-02-03T04:04:32.774Z,1026.45
2017-02-03T04:05:32.760Z,1026.4
2017-02-03T04:06:32.745Z,1026.33
2017-02-03T04:07:32.731Z,1026.28
2017-02-03T04:08:32.716Z,1026.24
2017-02-03T04:09:32.700Z,1026.27
2017-02-03T04:10:32.685Z,1026.22
2017-02-03T04:11:32.671Z,1026.19
2017-02-03T04:12:32.655Z,1026.23
2017-02-03T04:13:32.640Z,1026.32
2017-02-03T04:14:32.627Z,1026.4
2017-02-03T04:15:32.616Z,1026.4
2017-02-03T04:16:32.598Z,1026.42
2017-02-03T04:17:32.584Z,1026.43
2017-02-03T04:18:32.569Z,1026.45
2017-02-03T04:19:32.553Z,1026.43
2017-02-03T04:20:32.538Z,1026.38
2017-02-03T04:21:32.524Z,1026.35
2017-02-03T04:22:32.509Z,1026.34
2017-02-03T04:23:32.495Z,1026.33
2017-02-03T04:24:32.479Z,1026.34
2017-02-03T04:25:32.463Z,1026.19
2017-02-03T04:26:32.451Z,1026.15
2017-02-03T04:27:32.437Z,1026.09
2017-02-03T04:28:32.421Z,1026.15
2017-02-03T04:29:32.405Z,1026.13
2017-02-03T04:30:32.389Z,1026.04
2017-02-03T04:31:32.376Z,1025.98
2017-02-03T04:32:32.361Z,1025.9
2017-02-03T04:33:32.346Z,1025.92
2017-02-03T04:34:32.333Z,1025.86
2017-02-03T04:35:32.318Z,1025.88
2017-02-03T04:36:32.304Z,1025.9
2017-02-03T04:37:32.290Z,1025.88
2017-02-03T04:38:32.274Z,1025.95
2017-02-03T04:39:32.257Z,1025.97
2017-02-03T04:40:32.250Z,1026.01
2017-02-03T04:41:32.231Z,1025.98
2017-02-03T04:42:32.215Z,1025.95
2017-02-03T04:43:32.201Z,1026.01
2017-02-03T04:44:32.187Z,1026.01
2017-02-03T04:45:32.173Z,1026.06
2017-02-03T04:46:32.157Z,1026.07
2017-02-03T04:47:32.143Z,1026.05
2017-02-03T04:48:32.126Z,1026.01
2017-02-03T04:49:32.114Z,1025.98
2017-02-03T04:50:32.098Z,1025.94
2017-02-03T04:51:32.082Z,1025.92
2017-02-03T04:52:32.068Z,1025.9
2017-02-03T04:53:32.053Z,1025.91
2017-02-03T04:54:32.039Z,1025.91
2017-02-03T04:55:32.025Z,1025.93
2017-02-03T04:56:32.011Z,1025.9
2017-02-03T04:57:31.995Z,1025.89
2017-02-03T04:58:31.981Z,1025.84
2017-02-03T04:59:31.965Z,1025.86
2017-02-03T05:00:31.951Z,1025.79
2017-02-03T05:01:31.935Z,1025.8
2017-02-03T05:02:31.922Z,1025.83
2017-02-03T05:03:31.908Z,1025.85
2017-02-03T05:04:31.896Z,1025.87
2017-02-03T05:05:31.878Z,1025.82
2017-02-03T05:06:31.864Z,1025.85
2017-02-03T05:07:31.847Z,1025.86
2017-02-03T05:08:31.831Z,1025.86
2017-02-03T05:09:31.819Z,1025.85
2017-02-03T05:10:31.805Z,1025.83
2017-02-03T05:11:31.791Z,1025.83
2017-02-03T05:12:31.775Z,1025.82
2017-02-03T05:13:31.759Z,1025.82
2017-02-03T05:14:31.748Z,1025.68
2017-02-03T05:15:31.731Z,1025.63
2017-02-03T05:16:31.718Z,1025.6
2017-02-03T05:17:31.703Z,1025.59
2017-02-03T05:18:31.688Z,1025.63
2017-02-03T05:19:31.671Z,1025.63
2017-02-03T05:20:31.656Z,1025.59
2017-02-03T05:21:31.644Z,1025.57
2017-02-03T05:22:31.634Z,1025.55
2017-02-03T05:23:31.619Z,1025.56
2017-02-03T05:24:31.600Z,1025.53
2017-02-03T05:25:31.586Z,1025.46
2017-02-03T05:26:31.571Z,1025.42
2017-02-03T05:27:31.555Z,1025.43
2017-02-03T05:28:31.545Z,1025.47
2017-02-03T05:29:31.527Z,1025.51
2017-02-03T05:30:31.513Z,1025.52
2017-02-03T05:31:31.500Z,1025.49
2017-02-03T05:32:31.485Z,1025.46
2017-02-03T05:33:31.471Z,1025.49
2017-02-03T05:34:31.455Z,1025.49
2017-02-03T05:35:31.440Z,1025.56
2017-02-03T05:36:31.427Z,1025.54
2017-02-03T05:37:31.414Z,1025.55
2017-02-03T05:38:31.396Z,1025.53
2017-02-03T05:39:31.384Z,1025.55
2017-02-03T05:40:31.368Z,1025.55
2017-02-03T05:41:31.354Z,1025.57
2017-02-03T05:42:31.341Z,1025.57
2017-02-03T05:43:31.327Z,1025.53
2017-02-03T05:44:31.317Z,1025.5
2017-02-03T05:45:31.297Z,1025.52
2017-02-03T05:46:31.281Z,1025.5
2017-02-03T05:47:31.267Z,1025.42
2017-02-03T05:48:31.252Z,1025.42
2017-02-03T05:49:31.238Z,1025.44
2017-02-03T05:50:31.225Z,1025.43
2017-02-03T05:51:31.212Z,1025.42
2017-02-03T05:52:31.195Z,1025.37
2017-02-03T05:53:31.181Z,1025.37
2017-02-03T05:54:31.165Z,1025.36
2017-02-03T05:55:31.149Z,1025.39
2017-02-03T05:56:31.136Z,1025.36
2017-02-03T05:57:31.121Z,1025.34
2017-02-03T05:58:31.110Z,1025.41
2017-02-03T05:59:31.094Z,1025.43
2017-02-03T06:00:31.080Z,1025.46
2017-02-03T06:01:31.066Z,1025.52
2017-02-03T06:02:31.050Z,1025.54
2017-02-03T06:03:31.036Z,1025.6
2017-02-03T06:04:31.023Z,1025.59
2017-02-03T06:05:31.007Z,1025.6
2017-02-03T06:06:30.991Z,1025.61
2017-02-03T06:07:30.977Z,1025.57
2017-02-03T06:08:30.967Z,1025.59
2017-02-03T06:09:30.950Z,1025.54
2017-02-03T06:10:30.935Z,1025.48
2017-02-03T06:11:30.921Z,1025.45
2017-02-03T06:12:30.907Z,1025.35
2017-02-03T06:13:30.892Z,1025.36
2017-02-03T06:14:30.877Z,1025.32
2017-02-03T06:15:30.863Z,1025.3
2017-02-03T06:16:30.847Z,1025.25
2017-02-03T06:17:30.831Z,1025.27
2017-02-03T06:18:30.819Z,1025.26
2017-02-03T06:19:30.806Z,1025.32
2017-02-03T06:20:30.790Z,1025.3
2017-02-03T06:21:30.776Z,1025.32
2017-02-03T06:22:30.763Z,1025.37
2017-02-03T06:23:30.748Z,1025.37
2017-02-03T06:24:30.733Z,1025.41
2017-02-03T06:25:30.717Z,1025.44
2017-02-03T06:26:30.706Z,1025.45
2017-02-03T06:27:30.690Z,1025.48
2017-02-03T06:28:30.676Z,1025.5
2017-02-03T06:29:30.661Z,1025.52
2017-02-03T06:30:30.647Z,1025.54
2017-02-03T06:31:30.635Z,1025.52
2017-02-03T06:32:30.618Z,1025.49
2017-02-03T06:33:30.606Z,1025.48
2017-02-03T06:34:30.588Z,1025.41
2017-02-03T06:35:30.575Z,1025.45
2017-02-03T06:36:30.560Z,1025.37
2017-02-03T06:37:30.547Z,1025.38
2017-02-03T06:38:30.533Z,1025.34
2017-02-03T06:39:30.518Z,1025.29
2017-02-03T06:40:30.504Z,1025.23
2017-02-03T06:41:30.492Z,1025.23
2017-02-03T06:42:30.474Z,1025.19
2017-02-03T06:43:30.460Z,1025.18
2017-02-03T06:44:30.444Z,1025.1
2017-02-03T06:45:30.432Z,1025.07
2017-02-03T06:46:30.419Z,1025.08
2017-02-03T06:47:30.404Z,1025.05
2017-02-03T06:48:30.390Z,1025.07
2017-02-03T06:49:30.376Z,1025.06
2017-02-03T06:50:30.359Z,1025.02
2017-02-03T06:51:30.347Z,1025.04
2017-02-03T06:52:30.333Z,1025.09
2017-02-03T06:53:30.318Z,1025.09
2017-02-03T06:54:30.302Z,1025.12
2017-02-03T06:55:30.290Z,1025.13
2017-02-03T06:56:30.279Z,1025.14
2017-02-03T06:57:30.262Z,1025.2
2017-02-03T06:58:30.249Z,1025.19
2017-02-03T06:59:30.234Z,1025.22
2017-02-03T07:00:30.221Z,1025.19
2017-02-03T07:01:30.206Z,1025.2
2017-02-03T07:02:30.193Z,1025.18
2017-02-03T07:03:30.177Z,1025.16
2017-02-03T07:04:30.164Z,1025.12
2017-02-03T07:05:30.148Z,1025.16
2017-02-03T07:06:30.136Z,1025.16
2017-02-03T07:07:30.122Z,1025.14
2017-02-03T07:08:30.109Z,1025.15
2017-02-03T07:09:30.095Z,1025.08
2017-02-03T07:10:30.081Z,1025.06
2017-02-03T07:11:30.066Z,1025.06
2017-02-03T07:12:30.052Z,1024.99
2017-02-03T07:13:30.037Z,1025
2017-02-03T07:14:30.026Z,1024.95
2017-02-03T07:15:30.012Z,1024.92
2017-02-03T07:16:29.997Z,1024.82
2017-02-03T07:17:29.988Z,1024.8
2017-02-03T07:18:29.969Z,1024.75
2017-02-03T07:19:29.954Z,1024.69
2017-02-03T07:20:29.942Z,1024.72
2017-02-03T07:21:29.928Z,1024.72
2017-02-03T07:22:29.914Z,1024.71
2017-02-03T07:23:29.900Z,1024.7
2017-02-03T07:24:29.885Z,1024.7
2017-02-03T07:25:29.873Z,1024.67
2017-02-03T07:26:29.860Z,1024.69
2017-02-03T07:27:29.845Z,1024.67
2017-02-03T07:28:29.848Z,1024.66
2017-02-03T07:29:29.818Z,1024.63
2017-02-03T07:30:29.801Z,1024.62
2017-02-03T07:31:29.788Z,1024.55
2017-02-03T07:32:29.774Z,1024.53
2017-02-03T07:33:29.759Z,1024.57
2017-02-03T07:34:29.747Z,1024.58
2017-02-03T07:35:29.731Z,1024.6
2017-02-03T07:36:29.719Z,1024.63
2017-02-03T07:37:29.705Z,1024.6
2017-02-03T07:38:29.689Z,1024.6
2017-02-03T07:39:29.675Z,1024.56
2017-02-03T07:40:29.662Z,1024.54
2017-02-03T07:41:29.647Z,1024.48
2017-02-03T07:42:29.634Z,1024.47
2017-02-03T07:43:29.649Z,1024.44
2017-02-03T07:44:29.607Z,1024.46
2017-02-03T07:45:29.590Z,1024.5
2017-02-03T07:46:29.579Z,1024.48
2017-02-03T07:47:29.565Z,1024.42
2017-02-03T07:48:29.550Z,1024.44
2017-02-03T07:49:29.536Z,1024.42
2017-02-03T07:50:29.521Z,1024.46
2017-02-03T07:51:29.508Z,1024.42
2017-02-03T07:52:29.494Z,1024.44
2017-02-03T07:53:29.479Z,1024.44
2017-02-03T07:54:29.467Z,1024.38
2017-02-03T07:55:29.453Z,1024.37
2017-02-03T07:56:29.438Z,1024.27
2017-02-03T07:57:29.425Z,1024.24
2017-02-03T07:58:29.411Z,1024.2
2017-02-03T07:59:29.396Z,1024.19
2017-02-03T08:00:29.381Z,1024.22
2017-02-03T08:01:29.368Z,1024.23
2017-02-03T08:02:29.356Z,1024.14
2017-02-03T08:03:29.341Z,1024.16
2017-02-03T08:04:29.328Z,1024.16
2017-02-03T08:05:29.313Z,1024.06
2017-02-03T08:06:29.298Z,1023.97
2017-02-03T08:07:29.285Z,1023.96
2017-02-03T08:08:29.270Z,1023.87
2017-02-03T08:09:29.257Z,1023.79
2017-02-03T08:10:29.249Z,1023.79
2017-02-03T08:11:29.230Z,1023.74
2017-02-03T08:12:29.216Z,1023.71
2017-02-03T08:13:29.203Z,1023.72
2017-02-03T08:14:29.192Z,1023.71
2017-02-03T08:15:29.176Z,1023.74
2017-02-03T08:16:29.163Z,1023.67
2017-02-03T08:17:29.149Z,1023.64
2017-02-03T08:18:29.134Z,1023.62
2017-02-03T08:19:29.124Z,1023.56
2017-02-03T08:20:29.107Z,1023.53
2017-02-03T08:21:29.094Z,1023.5
2017-02-03T08:22:29.082Z,1023.54
2017-02-03T08:23:29.068Z,1023.47
2017-02-03T08:24:29.055Z,1023.37
2017-02-03T08:25:29.040Z,1023.36
2017-02-03T08:26:29.026Z,1023.32
2017-02-03T08:27:29.014Z,1023.27
2017-02-03T08:28:29.000Z,1023.23
2017-02-03T08:29:28.987Z,1023.31
2017-02-03T08:30:28.976Z,1023.27
2017-02-03T08:31:28.963Z,1023.24
2017-02-03T08:32:28.950Z,1023.22
2017-02-03T08:33:28.942Z,1023.24
2017-02-03T08:34:28.921Z,1023.33
2017-02-03T08:35:28.909Z,1023.32
2017-02-03T08:36:28.899Z,1023.3
2017-02-03T08:37:28.888Z,1023.3
2017-02-03T08:38:28.869Z,1023.24
2017-02-03T08:39:28.856Z,1023.22
2017-02-03T08:40:28.845Z,1023.14
2017-02-03T08:41:28.830Z,1023.15
2017-02-03T08:42:28.821Z,1023.11
2017-02-03T08:43:28.805Z,1023.04
2017-02-03T08:44:28.798Z,1022.99
2017-02-03T08:45:28.782Z,1022.92
2017-02-03T08:46:28.768Z,1022.85
2017-02-03T08:47:28.754Z,1022.79
2017-02-03T08:48:28.743Z,1022.76
2017-02-03T08:49:28.734Z,1022.71
2017-02-03T08:50:28.719Z,1022.72
2017-02-03T08:51:28.705Z,1022.72
2017-02-03T08:52:28.693Z,1022.76
2017-02-03T08:53:28.681Z,1022.75
2017-02-03T08:54:28.668Z,1022.78
2017-02-03T08:55:28.683Z,1022.78
2017-02-03T08:56:28.642Z,1022.77
2017-02-03T08:57:28.630Z,1022.74
2017-02-03T08:58:28.618Z,1022.64
2017-02-03T08:59:28.608Z,1022.57
2017-02-03T09:00:28.595Z,1022.58
2017-02-03T09:01:28.583Z,1022.59
2017-02-03T09:02:28.569Z,1022.59
2017-02-03T09:03:28.558Z,1022.5
2017-02-03T09:04:28.545Z,1022.46
2017-02-03T09:05:28.532Z,1022.43
2017-02-03T09:06:28.519Z,1022.42
2017-02-03T09:07:28.508Z,1022.34
2017-02-03T09:08:28.497Z,1022.33
2017-02-03T09:09:28.483Z,1022.32
2017-02-03T09:10:28.473Z,1022.27
2017-02-03T09:11:28.461Z,1022.26
2017-02-03T09:12:28.450Z,1022.26
2017-02-03T09:13:28.437Z,1022.21
2017-02-03T09:14:28.425Z,1022.25
2017-02-03T09:15:28.413Z,1022.17
2017-02-03T09:16:28.401Z,1022.22
2017-02-03T09:17:28.390Z,1022.24
2017-02-03T09:18:28.380Z,1022.21
2017-02-03T09:19:28.368Z,1022.21
2017-02-03T09:20:28.355Z,1022.21
2017-02-03T09:21:28.344Z,1022.29
2017-02-03T09:22:28.331Z,1022.28
2017-02-03T09:23:28.321Z,1022.27
2017-02-03T09:24:28.307Z,1022.24
2017-02-03T09:25:28.296Z,1022.23
2017-02-03T09:26:28.286Z,1022.22
2017-02-03T09:27:28.274Z,1022.23
2017-02-03T09:28:28.261Z,1022.24
2017-02-03T09:29:28.254Z,1022.23
2017-02-03T09:30:28.240Z,1022.23
2017-02-03T09:31:28.230Z,1022.17
2017-02-03T09:32:28.224Z,1022.15
2017-02-03T09:33:28.205Z,1022.12
2017-02-03T09:34:28.193Z,1022.12
2017-02-03T09:35:28.183Z,1022.18
2017-02-03T09:36:28.171Z,1022.16
2017-02-03T09:37:28.160Z,1022.19
2017-02-03T09:38:28.150Z,1022.23
2017-02-03T09:39:28.138Z,1022.23
2017-02-03T09:40:28.127Z,1022.23
2017-02-03T09:41:28.115Z,1022.15
2017-02-03T09:42:28.102Z,1022.19
2017-02-03T09:43:28.091Z,1022.19
2017-02-03T09:44:28.083Z,1022.15
2017-02-03T09:45:28.071Z,1022.11
2017-02-03T09:46:28.059Z,1022.11
2017-02-03T09:47:28.047Z,1022.05
2017-02-03T09:48:28.036Z,1022.06
2017-02-03T09:49:28.025Z,1021.99
2017-02-03T09:50:28.018Z,1021.97
2017-02-03T09:51:28.001Z,1021.85
2017-02-03T09:52:27.990Z,1021.83
2017-02-03T09:53:27.978Z,1021.79
2017-02-03T09:54:27.966Z,1021.77
2017-02-03T09:55:27.956Z,1021.76
2017-02-03T09:56:27.946Z,1021.77
2017-02-03T09:57:27.935Z,1021.84
2017-02-03T09:58:27.922Z,1021.83
2017-02-03T09:59:27.910Z,1021.85
2017-02-03T10:00:27.901Z,1021.84
2017-02-03T10:01:27.889Z,1021.87
2017-02-03T10:02:27.878Z,1021.88
2017-02-03T10:03:27.869Z,1021.89
2017-02-03T10:04:27.858Z,1021.94
2017-02-03T10:05:27.846Z,1021.89
2017-02-03T10:06:27.835Z,1021.85
2017-02-03T10:07:27.825Z,1021.82
2017-02-03T10:08:27.813Z,1021.85
2017-02-03T10:09:27.803Z,1021.86
2017-02-03T10:10:27.793Z,1021.75
2017-02-03T10:11:27.781Z,1021.75
2017-02-03T10:12:27.769Z,1021.66
2017-02-03T10:13:27.764Z,1021.64
2017-02-03T10:14:27.749Z,1021.64
2017-02-03T10:15:27.736Z,1021.59
2017-02-03T10:16:27.725Z,1021.56
2017-02-03T10:17:27.716Z,1021.54
2017-02-03T10:18:27.706Z,1021.52
2017-02-03T10:19:27.696Z,1021.52
2017-02-03T10:20:27.685Z,1021.47
2017-02-03T10:21:27.675Z,1021.48
2017-02-03T10:22:27.669Z,1021.42
2017-02-03T10:23:27.655Z,1021.37
2017-02-03T10:24:27.643Z,1021.26
2017-02-03T10:25:27.634Z,1021.24
2017-02-03T10:26:27.621Z,1021.18
2017-02-03T10:27:27.611Z,1021.16
2017-02-03T10:28:27.602Z,1021.12
2017-02-03T10:29:27.590Z,1021.1
2017-02-03T10:30:27.581Z,1021.04
2017-02-03T10:31:27.572Z,1021.06
2017-02-03T10:32:27.562Z,1021.08
2017-02-03T10:33:27.549Z,1021.05
2017-02-03T10:34:27.539Z,1021.13
2017-02-03T10:35:27.529Z,1021.16
2017-02-03T10:36:27.520Z,1021.21
2017-02-03T10:37:27.510Z,1021.28
2017-02-03T10:38:27.499Z,1021.3
2017-02-03T10:39:27.489Z,1021.34
2017-02-03T10:40:27.480Z,1021.37
2017-02-03T10:41:27.470Z,1021.45
2017-02-03T10:42:27.458Z,1021.49
2017-02-03T10:43:27.450Z,1021.48
2017-02-03T10:44:27.440Z,1021.46
2017-02-03T10:45:27.429Z,1021.44
2017-02-03T10:46:27.419Z,1021.41
2017-02-03T10:47:27.409Z,1021.34
2017-02-03T10:48:27.397Z,1021.28
2017-02-03T10:49:27.388Z,1021.28
2017-02-03T10:50:27.379Z,1021.25
2017-02-03T10:51:27.368Z,1021.22
2017-02-03T10:52:27.358Z,1021.2
2017-02-03T10:53:27.348Z,1021.17
2017-02-03T10:54:27.337Z,1021.15
2017-02-03T10:55:27.327Z,1021.07
2017-02-03T10:56:27.317Z,1021.09
2017-02-03T10:57:27.307Z,1021.06
2017-02-03T10:58:27.297Z,1020.96
2017-02-03T10:59:27.287Z,1020.92
2017-02-03T11:00:27.277Z,1020.91
2017-02-03T11:01:27.270Z,1020.84
2017-02-03T11:02:27.257Z,1020.84
2017-02-03T11:03:27.247Z,1020.85
2017-02-03T11:04:27.236Z,1020.82
2017-02-03T11:05:27.227Z,1020.79
2017-02-03T11:06:27.222Z,1020.7
2017-02-03T11:07:27.209Z,1020.74
2017-02-03T11:08:27.197Z,1020.64
2017-02-03T11:09:27.189Z,1020.62
2017-02-03T11:10:27.178Z,1020.66
2017-02-03T11:11:27.168Z,1020.66
2017-02-03T11:12:27.159Z,1020.68
2017-02-03T11:13:27.148Z,1020.62
2017-02-03T11:14:27.138Z,1020.59
2017-02-03T11:15:27.129Z,1020.62
2017-02-03T11:16:27.118Z,1020.59
2017-02-03T11:17:27.109Z,1020.65
2017-02-03T11:18:27.099Z,1020.62
2017-02-03T11:19:27.090Z,1020.6
2017-02-03T11:20:27.081Z,1020.61
2017-02-03T11:21:27.070Z,1020.6
2017-02-03T11:22:27.061Z,1020.61
2017-02-03T11:23:27.051Z,1020.68
2017-02-03T11:24:27.041Z,1020.66
2017-02-03T11:25:27.030Z,1020.72
2017-02-03T11:26:27.022Z,1020.71
2017-02-03T11:27:27.013Z,1020.68
2017-02-03T11:28:27.002Z,1020.67
2017-02-03T11:29:26.995Z,1020.61
2017-02-03T11:30:26.981Z,1020.57
2017-02-03T11:31:26.973Z,1020.58
2017-02-03T11:32:26.961Z,1020.58
2017-02-03T11:33:26.953Z,1020.61
2017-02-03T11:34:26.944Z,1020.63
2017-02-03T11:35:26.934Z,1020.67
2017-02-03T11:36:26.922Z,1020.68
2017-02-03T11:37:26.913Z,1020.71
2017-02-03T11:38:26.907Z,1020.77
2017-02-03T11:39:26.896Z,1020.84
2017-02-03T11:40:26.886Z,1020.87
2017-02-03T11:41:26.875Z,1020.84
2017-02-03T11:42:26.865Z,1020.82
2017-02-03T11:43:26.855Z,1020.81
2017-02-03T11:44:26.843Z,1020.8
2017-02-03T11:45:26.835Z,1020.82
2017-02-03T11:46:26.826Z,1020.82
2017-02-03T11:47:26.821Z,1020.85
2017-02-03T11:48:26.808Z,1020.87
2017-02-03T11:49:26.797Z,1020.92
2017-02-03T11:50:26.786Z,1020.87
2017-02-03T11:51:26.776Z,1020.95
2017-02-03T11:52:26.771Z,1021
2017-02-03T11:53:26.756Z,1021.03
2017-02-03T11:54:26.748Z,1021.06
2017-02-03T11:55:26.738Z,1021.02
2017-02-03T11:56:26.730Z,1021.06
2017-02-03T11:57:26.718Z,1021.08
2017-02-03T11:58:26.706Z,1021.02
2017-02-03T11:59:26.696Z,1020.97
2017-02-03T12:00:26.686Z,1020.92
2017-02-03T12:01:26.676Z,1020.86
2017-02-03T12:02:26.666Z,1020.79
2017-02-03T12:03:26.655Z,1020.72
2017-02-03T12:04:26.646Z,1020.72
2017-02-03T12:05:26.636Z,1020.61
2017-02-03T12:06:26.628Z,1020.54
2017-02-03T12:07:26.617Z,1020.54